createdAt,value
2023-04-01T00:01:06.830Z,98588.63
2023-04-01T00:03:34.776Z,98591.25
2023-04-01T00:06:02.162Z,98598.25
2023-04-01T00:08:29.036Z,98586.94
2023-04-01T00:10:56.093Z,98572.19
2023-04-01T00:13:22.715Z,98596.56
2023-04-01T00:15:49.427Z,98588.81
2023-04-01T00:18:16.442Z,98596.63
2023-04-01T00:20:47.571Z,98581.81
2023-04-01T00:23:15.527Z,98591.34
2023-04-01T00:25:42.161Z,98583.50
2023-04-01T00:28:08.618Z,98579.03
2023-04-01T00:30:36.835Z,98581.72
2023-04-01T00:33:03.783Z,98584.25
2023-04-01T00:35:30.841Z,98586.94
2023-04-01T00:37:57.685Z,98575.53
2023-04-01T00:40:31.684Z,98591.25
2023-04-01T00:42:58.494Z,98586.03
2023-04-01T00:45:40.408Z,98582.56
2023-04-01T00:48:11.376Z,98582.56
2023-04-01T00:50:40.557Z,98569.66
2023-04-01T00:53:09.030Z,98588.72
2023-04-01T00:55:39.356Z,98574.81
2023-04-01T00:58:09.825Z,98566.97
2023-04-01T01:00:37.519Z,98572.13
2023-04-01T01:03:04.115Z,98583.50
2023-04-01T01:06:00.011Z,98575.66
2023-04-01T01:08:43.097Z,98567.72
2023-04-01T01:11:12.682Z,98567.81
2023-04-01T01:13:52.287Z,98563.34
2023-04-01T01:16:36.152Z,98552.13
2023-04-01T01:19:33.201Z,98571.28
2023-04-01T01:22:20.370Z,98568.66
2023-04-01T01:25:43.025Z,98560.81
2023-04-01T01:28:13.585Z,98558.28
2023-04-01T01:30:48.773Z,98567.81
2023-04-01T01:33:43.991Z,98561.06
2023-04-01T01:36:15.256Z,98570.72
2023-04-01T01:38:42.423Z,98564.91
2023-04-01T01:41:11.024Z,98567.50
2023-04-01T01:43:44.778Z,98566.75
2023-04-01T01:46:18.278Z,98557.34
2023-04-01T01:48:46.787Z,98574.72
2023-04-01T01:51:13.279Z,98557.28
2023-04-01T01:53:39.798Z,98563.44
2023-04-01T01:56:06.888Z,98565.06
2023-04-01T01:58:41.324Z,98563.44
2023-04-01T02:01:21.857Z,98549.44
2023-04-01T02:03:49.263Z,98557.28
2023-04-01T02:06:19.395Z,98560.81
2023-04-01T02:09:00.364Z,98566.97
2023-04-01T02:11:50.029Z,98550.44
2023-04-01T02:14:27.069Z,98554.91
2023-04-01T02:17:01.037Z,98556.75
2023-04-01T02:19:37.188Z,98551.59
2023-04-01T02:22:06.361Z,98551.66
2023-04-01T02:24:36.704Z,98540.47
2023-04-01T02:27:04.046Z,98542.91
2023-04-01T02:29:31.048Z,98537.75
2023-04-01T02:31:59.012Z,98545.84
2023-04-01T02:34:27.088Z,98551.19
2023-04-01T02:36:55.334Z,98540.75
2023-04-01T02:39:22.553Z,98547.66
2023-04-01T02:41:49.601Z,98540.63
2023-04-01T02:44:16.849Z,98543.44
2023-04-01T02:46:44.200Z,98546.22
2023-04-01T02:49:11.196Z,98541.75
2023-04-01T02:51:37.744Z,98544.56
2023-04-01T02:54:04.346Z,98546.34
2023-04-01T02:56:30.863Z,98545.59
2023-04-01T02:58:57.355Z,98543.97
2023-04-01T03:01:24.266Z,98548.28
2023-04-01T03:03:51.122Z,98544.97
2023-04-01T03:06:18.530Z,98538.84
2023-04-01T03:08:45.245Z,98547.44
2023-04-01T03:11:12.280Z,98545.66
2023-04-01T03:13:38.912Z,98548.44
2023-04-01T03:16:06.055Z,98553.56
2023-04-01T03:18:32.576Z,98551.81
2023-04-01T03:21:13.565Z,98565.63
2023-04-01T03:23:40.118Z,98563.19
2023-04-01T03:26:06.554Z,98557.88
2023-04-01T03:28:33.064Z,98565.72
2023-04-01T03:30:59.534Z,98564.09
2023-04-01T03:33:26.022Z,98568.41
2023-04-01T03:35:53.255Z,98565.78
2023-04-01T03:38:19.853Z,98578.06
2023-04-01T03:40:46.357Z,98565.03
2023-04-01T03:43:13.171Z,98583.31
2023-04-01T03:45:51.008Z,98576.22
2023-04-01T03:48:17.608Z,98568.47
2023-04-01T03:50:46.596Z,98573.53
2023-04-01T03:53:13.308Z,98573.63
2023-04-01T03:55:40.632Z,98572.69
2023-04-01T03:58:08.225Z,98570.09
2023-04-01T04:00:35.594Z,98571.94
2023-04-01T04:03:02.477Z,98574.47
2023-04-01T04:05:29.102Z,98573.63
2023-04-01T04:07:55.640Z,98573.63
2023-04-01T04:10:23.835Z,98574.53
2023-04-01T04:12:51.020Z,98579.69
2023-04-01T04:15:17.932Z,98583.13
2023-04-01T04:17:46.235Z,98577.16
2023-04-01T04:20:13.259Z,98571.84
2023-04-01T04:22:39.672Z,98572.69
2023-04-01T04:25:06.652Z,98571.78
2023-04-01T04:27:33.997Z,98572.53
2023-04-01T04:30:00.552Z,98575.31
2023-04-01T04:32:27.978Z,98564.88
2023-04-01T04:34:55.334Z,98576.22
2023-04-01T04:37:21.798Z,98569.31
2023-04-01T04:39:48.191Z,98572.84
2023-04-01T04:42:14.639Z,98571.00
2023-04-01T04:44:41.187Z,98581.44
2023-04-01T04:47:07.640Z,98576.34
2023-04-01T04:49:34.372Z,98584.97
2023-04-01T04:52:00.827Z,98592.88
2023-04-01T04:54:27.286Z,98580.72
2023-04-01T04:56:54.458Z,98585.91
2023-04-01T04:59:21.068Z,98571.22
2023-04-01T05:01:47.756Z,98580.72
2023-04-01T05:04:14.383Z,98586.03
2023-04-01T05:06:40.864Z,98590.34
2023-04-01T05:09:07.310Z,98585.97
2023-04-01T05:11:33.741Z,98588.53
2023-04-01T05:14:00.234Z,98588.53
2023-04-01T05:16:26.784Z,98592.88
2023-04-01T05:18:53.214Z,98592.88
2023-04-01T05:21:19.645Z,98595.63
2023-04-01T05:23:46.120Z,98583.44
2023-04-01T05:26:15.120Z,98597.41
2023-04-01T05:28:41.734Z,98595.72
2023-04-01T05:31:08.683Z,98600.09
2023-04-01T05:33:35.924Z,98599.25
2023-04-01T05:36:14.647Z,98605.47
2023-04-01T05:38:41.508Z,98593.25
2023-04-01T05:41:07.990Z,98602.84
2023-04-01T05:43:37.074Z,98603.63
2023-04-01T05:46:03.576Z,98602.78
2023-04-01T05:48:30.028Z,98598.47
2023-04-01T05:50:56.586Z,98599.41
2023-04-01T05:53:23.259Z,98598.47
2023-04-01T05:55:52.019Z,98607.22
2023-04-01T05:58:18.621Z,98601.13
2023-04-01T06:00:46.549Z,98603.75
2023-04-01T06:03:13.196Z,98604.66
2023-04-01T06:05:42.322Z,98610.69
2023-04-01T06:08:20.395Z,98606.34
2023-04-01T06:10:56.336Z,98609.88
2023-04-01T06:14:11.193Z,98608.97
2023-04-01T06:16:49.608Z,98607.22
2023-04-01T06:19:42.664Z,98611.56
2023-04-01T06:22:15.254Z,98615.97
2023-04-01T06:25:06.664Z,98615.91
2023-04-01T06:28:09.164Z,98621.06
2023-04-01T06:30:44.131Z,98628.88
2023-04-01T06:33:16.675Z,98623.66
2023-04-01T06:35:51.422Z,98621.06
2023-04-01T06:38:29.420Z,98628.97
2023-04-01T06:41:14.339Z,98628.03
2023-04-01T06:43:50.455Z,98628.88
2023-04-01T06:46:40.985Z,98628.03
2023-04-01T06:49:29.124Z,98633.19
2023-04-01T06:52:31.360Z,98629.00
2023-04-01T06:55:31.741Z,98636.84
2023-04-01T06:58:01.828Z,98635.94
2023-04-01T07:00:33.083Z,98638.59
2023-04-01T07:03:31.371Z,98635.06
2023-04-01T07:06:03.529Z,98641.94
2023-04-01T07:08:32.912Z,98637.63
2023-04-01T07:11:05.732Z,98630.56
2023-04-01T07:13:42.111Z,98635.72
2023-04-01T07:16:36.863Z,98637.41
2023-04-01T07:19:13.725Z,98641.78
2023-04-01T07:21:49.848Z,98639.16
2023-04-01T07:24:25.494Z,98658.38
2023-04-01T07:26:56.374Z,98651.22
2023-04-01T07:29:23.348Z,98659.13
2023-04-01T07:32:20.292Z,98666.84
2023-04-01T07:35:22.298Z,98674.69
2023-04-01T07:38:12.026Z,98664.00
2023-04-01T07:41:03.840Z,98673.44
2023-04-01T07:43:58.740Z,98674.44
2023-04-01T07:46:43.749Z,98671.84
2023-04-01T07:49:51.726Z,98679.75
2023-04-01T07:52:36.628Z,98691.88
2023-04-01T07:55:21.198Z,98691.81
2023-04-01T07:57:53.670Z,98696.09
2023-04-01T08:00:25.987Z,98692.81
2023-04-01T08:02:55.416Z,98690.19
2023-04-01T08:05:33.333Z,98695.34
2023-04-01T08:08:18.635Z,98694.41
2023-04-01T08:10:53.088Z,98707.63
2023-04-01T08:13:39.700Z,98704.94
2023-04-01T08:16:36.084Z,98710.84
2023-04-01T08:19:07.231Z,98707.47
2023-04-01T08:21:44.940Z,98714.38
2023-04-01T08:24:47.157Z,98716.16
2023-04-01T08:27:37.805Z,98723.06
2023-04-01T08:30:16.933Z,98734.31
2023-04-01T08:32:49.812Z,98731.53
2023-04-01T08:35:43.370Z,98734.00
2023-04-01T08:38:20.131Z,98729.69
2023-04-01T08:41:06.750Z,98738.53
2023-04-01T08:43:42.302Z,98744.44
2023-04-01T08:46:30.135Z,98742.84
2023-04-01T08:49:14.340Z,98745.44
2023-04-01T08:52:06.428Z,98738.53
2023-04-01T08:54:58.538Z,98747.91
2023-04-01T08:57:46.653Z,98755.81
2023-04-01T09:00:31.239Z,98758.44
2023-04-01T09:03:23.769Z,98769.66
2023-04-01T09:06:35.489Z,98765.06
2023-04-01T09:09:23.041Z,98773.69
2023-04-01T09:12:11.214Z,98767.50
2023-04-01T09:15:08.930Z,98772.84
2023-04-01T09:18:12.742Z,98776.28
2023-04-01T09:20:54.540Z,98787.59
2023-04-01T09:23:42.749Z,98788.59
2023-04-01T09:26:35.266Z,98800.72
2023-04-01T09:29:36.718Z,98799.88
2023-04-01T09:32:40.640Z,98808.47
2023-04-01T09:35:25.445Z,98802.47
2023-04-01T09:38:09.784Z,98804.75
2023-04-01T09:40:56.768Z,98802.06
2023-04-01T09:43:35.399Z,98812.75
2023-04-01T09:46:29.343Z,98806.72
2023-04-01T09:49:20.817Z,98812.78
2023-04-01T09:52:00.720Z,98819.72
2023-04-01T09:54:48.349Z,98816.31
2023-04-01T09:57:53.335Z,98823.31
2023-04-01T10:00:47.678Z,98829.38
2023-04-01T10:03:44.920Z,98828.53
2023-04-01T10:06:42.290Z,98828.59
2023-04-01T10:09:46.509Z,98830.22
2023-04-01T10:12:30.390Z,98839.75
2023-04-01T10:15:09.114Z,98844.94
2023-04-01T10:18:05.896Z,98842.25
2023-04-01T10:20:54.163Z,98851.78
2023-04-01T10:23:52.951Z,98847.31
2023-04-01T10:26:43.571Z,98849.94
2023-04-01T10:29:19.126Z,98856.09
2023-04-01T10:32:33.550Z,98856.84
2023-04-01T10:35:29.285Z,98861.16
2023-04-01T10:37:55.620Z,98862.81
2023-04-01T10:40:45.538Z,98860.38
2023-04-01T10:43:39.643Z,98863.91
2023-04-01T10:46:38.284Z,98863.84
2023-04-01T10:49:23.546Z,98867.38
2023-04-01T10:52:11.659Z,98867.31
2023-04-01T10:55:23.024Z,98870.84
2023-04-01T10:58:07.677Z,98869.16
2023-04-01T11:00:56.476Z,98874.22
2023-04-01T11:04:01.936Z,98869.06
2023-04-01T11:07:06.220Z,98882.72
2023-04-01T11:10:15.993Z,98880.25
2023-04-01T11:13:06.650Z,98875.97
2023-04-01T11:15:45.848Z,98883.78
2023-04-01T11:18:51.033Z,98879.41
2023-04-01T11:22:11.503Z,98876.72
2023-04-01T11:25:06.911Z,98896.84
2023-04-01T11:28:05.763Z,98897.63
2023-04-01T11:30:47.316Z,98891.31
2023-04-01T11:33:36.850Z,98897.31
2023-04-01T11:36:11.437Z,98900.81
2023-04-01T11:38:55.826Z,98908.56
2023-04-01T11:41:37.742Z,98911.97
2023-04-01T11:44:28.221Z,98921.50
2023-04-01T11:47:28.848Z,98908.44
2023-04-01T11:49:58.190Z,98920.56
2023-04-01T11:52:46.417Z,98926.78
2023-04-01T11:55:38.451Z,98918.03
2023-04-01T11:58:32.306Z,98923.06
2023-04-01T12:01:11.548Z,98936.00
2023-04-01T12:04:15.310Z,98934.16
2023-04-01T12:07:01.155Z,98933.13
2023-04-01T12:09:52.556Z,98947.22
2023-04-01T12:12:24.869Z,98940.22
2023-04-01T12:15:03.355Z,98942.84
2023-04-01T12:17:38.951Z,98947.94
2023-04-01T12:20:29.138Z,98959.03
2023-04-01T12:23:10.507Z,98959.03
2023-04-01T12:25:47.181Z,98957.41
2023-04-01T12:28:29.012Z,98963.41
2023-04-01T12:31:19.055Z,98967.59
2023-04-01T12:33:51.734Z,98981.44
2023-04-01T12:36:42.041Z,98987.44
2023-04-01T12:39:40.361Z,98977.00
2023-04-01T12:42:24.484Z,98988.03
2023-04-01T12:45:33.858Z,98991.28
2023-04-01T12:48:22.223Z,99000.81
2023-04-01T12:51:10.330Z,98991.16
2023-04-01T12:54:08.491Z,98999.50
2023-04-01T12:57:19.484Z,99003.63
2023-04-01T13:00:24.704Z,99015.00
2023-04-01T13:03:18.307Z,99013.06
2023-04-01T13:05:50.792Z,99007.75
2023-04-01T13:08:29.743Z,99015.75
2023-04-01T13:11:36.211Z,99021.84
2023-04-01T13:14:30.848Z,99035.88
2023-04-01T13:17:20.811Z,99032.66
2023-04-01T13:20:14.304Z,99032.69
2023-04-01T13:23:31.853Z,99044.00
2023-04-01T13:26:27.878Z,99039.78
2023-04-01T13:29:05.859Z,99042.53
2023-04-01T13:31:53.713Z,99050.38
2023-04-01T13:34:32.216Z,99045.94
2023-04-01T13:37:24.080Z,99053.09
2023-04-01T13:40:12.231Z,99053.09
2023-04-01T13:42:50.748Z,99054.75
2023-04-01T13:45:43.073Z,99052.91
2023-04-01T13:48:41.299Z,99058.16
2023-04-01T13:51:25.898Z,99043.47
2023-04-01T13:54:04.369Z,99065.34
2023-04-01T13:56:58.253Z,99068.88
2023-04-01T13:59:49.680Z,99067.25
2023-04-01T14:02:38.254Z,99072.28
2023-04-01T14:05:32.494Z,99068.88
2023-04-01T14:09:04.563Z,99073.13
2023-04-01T14:11:53.523Z,99083.59
2023-04-01T14:14:59.057Z,99086.91
2023-04-01T14:17:45.712Z,99091.09
2023-04-01T14:20:34.392Z,99099.75
2023-04-01T14:23:28.753Z,99094.13
2023-04-01T14:26:05.008Z,99105.53
2023-04-01T14:28:43.315Z,99115.06
2023-04-01T14:31:31.341Z,99107.84
2023-04-01T14:34:15.752Z,99110.34
2023-04-01T14:36:51.534Z,99122.75
2023-04-01T14:39:49.157Z,99121.84
2023-04-01T14:42:21.867Z,99128.91
2023-04-01T14:45:22.645Z,99120.81
2023-04-01T14:48:10.980Z,99133.09
2023-04-01T14:50:47.030Z,99133.16
2023-04-01T14:53:34.708Z,99134.81
2023-04-01T14:56:07.160Z,99130.53
2023-04-01T14:58:50.337Z,99135.59
2023-04-01T15:01:43.632Z,99135.84
2023-04-01T15:04:26.665Z,99140.31
2023-04-01T15:07:36.432Z,99149.00
2023-04-01T15:10:09.294Z,99152.47
2023-04-01T15:12:59.085Z,99154.28
2023-04-01T15:16:03.248Z,99162.25
2023-04-01T15:18:57.678Z,99158.19
2023-04-01T15:21:43.216Z,99166.16
2023-04-01T15:24:20.232Z,99168.00
2023-04-01T15:27:17.306Z,99167.13
2023-04-01T15:30:05.848Z,99169.75
2023-04-01T15:32:47.477Z,99172.28
2023-04-01T15:35:44.873Z,99172.38
2023-04-01T15:38:23.530Z,99175.84
2023-04-01T15:41:07.084Z,99177.75
2023-04-01T15:43:46.310Z,99182.13
2023-04-01T15:46:24.988Z,99186.69
2023-04-01T15:49:12.362Z,99191.13
2023-04-01T15:51:57.510Z,99188.69
2023-04-01T15:54:39.005Z,99193.91
2023-04-01T15:57:36.094Z,99205.22
2023-04-01T16:00:20.961Z,99192.34
2023-04-01T16:02:52.407Z,99197.66
2023-04-01T16:05:19.052Z,99208.09
2023-04-01T16:07:51.221Z,99199.53
2023-04-01T16:10:33.024Z,99201.34
2023-04-01T16:13:33.735Z,99208.22
2023-04-01T16:16:24.448Z,99201.34
2023-04-01T16:19:11.671Z,99205.84
2023-04-01T16:21:44.310Z,99215.50
2023-04-01T16:24:36.449Z,99209.50
2023-04-01T16:27:15.662Z,99205.97
2023-04-01T16:30:04.251Z,99215.56
2023-04-01T16:32:37.732Z,99217.41
2023-04-01T16:35:40.333Z,99211.25
2023-04-01T16:38:13.200Z,99211.31
2023-04-01T16:40:45.590Z,99215.72
2023-04-01T16:43:26.923Z,99220.88
2023-04-01T16:46:15.517Z,99233.09
2023-04-01T16:49:43.130Z,99235.63
2023-04-01T16:52:09.493Z,99240.88
2023-04-01T16:54:51.337Z,99254.72
2023-04-01T16:57:44.568Z,99244.25
2023-04-01T17:00:40.234Z,99251.31
2023-04-01T17:03:46.352Z,99254.78
2023-04-01T17:06:18.782Z,99274.91
2023-04-01T17:09:24.188Z,99275.75
2023-04-01T17:12:07.234Z,99286.34
2023-04-01T17:15:05.919Z,99273.31
2023-04-01T17:18:04.462Z,99277.69
2023-04-01T17:20:42.632Z,99280.34
2023-04-01T17:23:35.102Z,99279.50
2023-04-01T17:26:26.124Z,99288.19
2023-04-01T17:29:06.671Z,99286.50
2023-04-01T17:32:08.076Z,99294.34
2023-04-01T17:34:46.385Z,99299.56
2023-04-01T17:37:36.215Z,99301.19
2023-04-01T17:40:27.109Z,99306.38
2023-04-01T17:43:09.263Z,99317.78
2023-04-01T17:45:49.275Z,99310.88
2023-04-01T17:48:38.180Z,99316.03
2023-04-01T17:51:21.416Z,99314.41
2023-04-01T17:54:10.863Z,99318.84
2023-04-01T17:56:50.716Z,99330.16
2023-04-01T17:59:29.432Z,99332.84
2023-04-01T18:02:24.006Z,99332.00
2023-04-01T18:05:22.333Z,99332.06
2023-04-01T18:08:07.854Z,99340.75
2023-04-01T18:11:11.404Z,99337.34
2023-04-01T18:13:59.203Z,99349.50
2023-04-01T18:16:29.772Z,99355.66
2023-04-01T18:19:23.804Z,99355.75
2023-04-01T18:21:56.728Z,99360.06
2023-04-01T18:24:36.553Z,99364.38
2023-04-01T18:27:19.155Z,99366.16
2023-04-01T18:29:51.774Z,99373.16
2023-04-01T18:32:27.500Z,99380.19
2023-04-01T18:35:20.573Z,99388.03
2023-04-01T18:38:11.888Z,99395.03
2023-04-01T18:40:46.923Z,99395.03
2023-04-01T18:43:13.286Z,99398.56
2023-04-01T18:45:51.575Z,99402.09
2023-04-01T18:48:44.808Z,99402.94
2023-04-01T18:51:26.610Z,99403.84
2023-04-01T18:54:06.668Z,99408.28
2023-04-01T18:56:42.862Z,99410.13
2023-04-01T18:59:37.949Z,99412.75
2023-04-01T19:02:25.568Z,99416.28
2023-04-01T19:04:58.372Z,99418.94
2023-04-01T19:07:42.934Z,99419.00
2023-04-01T19:10:36.202Z,99421.78
2023-04-01T19:13:36.597Z,99422.63
2023-04-01T19:16:22.250Z,99439.13
2023-04-01T19:19:07.371Z,99440.03
2023-04-01T19:21:39.339Z,99440.91
2023-04-01T19:24:25.154Z,99442.63
2023-04-01T19:27:03.663Z,99447.03
2023-04-01T19:29:54.798Z,99446.97
2023-04-01T19:32:58.633Z,99451.34
2023-04-01T19:35:37.189Z,99445.19
2023-04-01T19:38:15.853Z,99441.88
2023-04-01T19:41:01.015Z,99454.88
2023-04-01T19:43:30.519Z,99454.94
2023-04-01T19:46:38.405Z,99454.13
2023-04-01T19:49:35.793Z,99457.59
2023-04-01T19:52:10.833Z,99451.47
2023-04-01T19:54:53.367Z,99458.44
2023-04-01T19:57:23.092Z,99465.56
2023-04-01T19:59:53.064Z,99472.53
2023-04-01T20:02:40.769Z,99469.09
2023-04-01T20:05:50.036Z,99477.06
2023-04-01T20:08:19.362Z,99473.59
2023-04-01T20:11:01.246Z,99479.72
2023-04-01T20:13:55.070Z,99482.28
2023-04-01T20:16:23.580Z,99487.50
2023-04-01T20:18:53.842Z,99493.56
2023-04-01T20:21:47.579Z,99496.25
2023-04-01T20:24:34.324Z,99501.41
2023-04-01T20:27:09.419Z,99505.84
2023-04-01T20:30:01.305Z,99502.31
2023-04-01T20:32:33.685Z,99514.59
2023-04-01T20:35:06.976Z,99516.34
2023-04-01T20:37:40.946Z,99517.22
2023-04-01T20:40:10.554Z,99514.56
2023-04-01T20:42:58.022Z,99523.25
2023-04-01T20:45:24.499Z,99532.00
2023-04-01T20:48:02.470Z,99527.63
2023-04-01T20:50:57.488Z,99531.09
2023-04-01T20:53:38.118Z,99538.06
2023-04-01T20:56:10.797Z,99533.75
2023-04-01T20:59:14.868Z,99536.31
2023-04-01T21:02:12.422Z,99539.72
2023-04-01T21:05:02.102Z,99549.38
2023-04-01T21:07:51.979Z,99552.72
2023-04-01T21:10:24.329Z,99555.28
2023-04-01T21:13:12.055Z,99562.22
2023-04-01T21:15:43.175Z,99563.97
2023-04-01T21:18:39.415Z,99567.50
2023-04-01T21:21:32.788Z,99570.97
2023-04-01T21:24:14.644Z,99584.88
2023-04-01T21:27:12.260Z,99587.47
2023-04-01T21:29:49.489Z,99591.00
2023-04-01T21:32:34.446Z,99593.78
2023-04-01T21:35:19.512Z,99609.56
2023-04-01T21:37:49.968Z,99606.28
2023-04-01T21:40:31.612Z,99615.88
2023-04-01T21:43:35.832Z,99618.53
2023-04-01T21:46:40.926Z,99623.91
2023-04-01T21:49:39.698Z,99633.47
2023-04-01T21:52:43.846Z,99631.81
2023-04-01T21:55:30.078Z,99639.75
2023-04-01T21:58:33.941Z,99646.84
2023-04-01T22:01:45.737Z,99651.06
2023-04-01T22:04:42.992Z,99656.44
2023-04-01T22:07:21.862Z,99666.88
2023-04-01T22:10:23.938Z,99670.63
2023-04-01T22:13:06.400Z,99666.34
2023-04-01T22:16:24.182Z,99680.25
2023-04-01T22:19:17.435Z,99680.25
2023-04-01T22:22:04.435Z,99685.56
2023-04-01T22:24:55.413Z,99693.41
2023-04-01T22:27:35.568Z,99697.16
2023-04-01T22:30:06.154Z,99690.31
2023-04-01T22:32:44.604Z,99703.25
2023-04-01T22:35:14.311Z,99702.44
2023-04-01T22:38:12.825Z,99706.06
2023-04-01T22:41:03.108Z,99719.25
2023-04-01T22:43:38.024Z,99734.00
2023-04-01T22:46:20.178Z,99734.97
2023-04-01T22:49:05.471Z,99729.75
2023-04-01T22:51:48.800Z,99747.22
2023-04-01T22:54:33.453Z,99758.53
2023-04-01T22:57:09.512Z,99753.31
2023-04-01T23:00:02.190Z,99752.56
2023-04-01T23:02:32.660Z,99759.63
2023-04-01T23:05:06.224Z,99771.06
2023-04-01T23:08:01.623Z,99779.66
2023-04-01T23:10:42.369Z,99791.84
2023-04-01T23:13:39.149Z,99793.63
2023-04-01T23:16:08.096Z,99802.41
2023-04-01T23:19:00.802Z,99813.84
2023-04-01T23:21:46.136Z,99821.75
2023-04-01T23:24:38.389Z,99822.72
2023-04-01T23:27:20.297Z,99835.81
2023-04-01T23:29:46.907Z,99839.31
2023-04-01T23:32:18.018Z,99841.06
2023-04-01T23:34:53.419Z,99849.84
2023-04-01T23:37:21.752Z,99850.75
2023-04-01T23:39:51.567Z,99862.09
2023-04-01T23:42:32.062Z,99855.19
2023-04-01T23:45:02.223Z,99867.34
2023-04-01T23:47:34.645Z,99878.75
2023-04-01T23:50:19.367Z,99880.53
2023-04-01T23:52:53.324Z,99891.75
2023-04-01T23:55:23.883Z,99897.91
2023-04-01T23:58:17.715Z,99893.63
